sensor_id;sensor_type;location;lat;lon;timestamp;temperature;humidity
16655;DHT22;8441;51.344;7.022;2022-10-17T00:01:46;15.10;99.90
16655;DHT22;8441;51.344;7.022;2022-10-17T00:04:14;15.00;99.90
16655;DHT22;8441;51.344;7.022;2022-10-17T00:06:41;15.00;99.90
16655;DHT22;8441;51.344;7.022;2022-10-17T00:09:09;15.00;99.90
16655;DHT22;8441;51.344;7.022;2022-10-17T00:11:37;15.10;99.90
16655;DHT22;8441;51.344;7.022;2022-10-17T00:14:04;15.10;99.90
16655;DHT22;8441;51.344;7.022;2022-10-17T00:16:32;15.10;99.90
16655;DHT22;8441;51.344;7.022;2022-10-17T00:19:02;15.10;99.90
16655;DHT22;8441;51.344;7.022;2022-10-17T00:21:29;15.10;99.90
16655;DHT22;8441;51.344;7.022;2022-10-17T00:23:56;15.20;99.90
16655;DHT22;8441;51.344;7.022;2022-10-17T00:26:26;15.20;99.90
16655;DHT22;8441;51.344;7.022;2022-10-17T00:28:54;15.20;99.90
16655;DHT22;8441;51.344;7.022;2022-10-17T00:31:23;15.30;99.90
16655;DHT22;8441;51.344;7.022;2022-10-17T00:33:51;15.30;99.90
16655;DHT22;8441;51.344;7.022;2022-10-17T00:36:20;15.30;99.90
16655;DHT22;8441;51.344;7.022;2022-10-17T00:38:50;15.20;99.90
16655;DHT22;8441;51.344;7.022;2022-10-17T00:41:21;15.30;99.90
16655;DHT22;8441;51.344;7.022;2022-10-17T00:43:52;15.30;99.90
16655;DHT22;8441;51.344;7.022;2022-10-17T00:46:20;15.30;99.90
16655;DHT22;8441;51.344;7.022;2022-10-17T00:48:49;15.20;99.90
16655;DHT22;8441;51.344;7.022;2022-10-17T00:51:19;15.30;99.90
16655;DHT22;8441;51.344;7.022;2022-10-17T00:53:48;15.20;99.90
16655;DHT22;8441;51.344;7.022;2022-10-17T00:56:18;15.30;99.90
16655;DHT22;8441;51.344;7.022;2022-10-17T00:58:45;15.30;99.90
16655;DHT22;8441;51.344;7.022;2022-10-17T01:01:14;15.30;99.90
16655;DHT22;8441;51.344;7.022;2022-10-17T01:03:42;15.40;99.90
16655;DHT22;8441;51.344;7.022;2022-10-17T01:06:09;15.40;99.90
16655;DHT22;8441;51.344;7.022;2022-10-17T01:08:37;15.40;99.90
16655;DHT22;8441;51.344;7.022;2022-10-17T01:11:12;15.40;99.90
16655;DHT22;8441;51.344;7.022;2022-10-17T01:13:48;15.40;99.90
16655;DHT22;8441;51.344;7.022;2022-10-17T01:16:23;15.50;99.90
16655;DHT22;8441;51.344;7.022;2022-10-17T01:18:59;15.40;99.90
16655;DHT22;8441;51.344;7.022;2022-10-17T01:21:42;15.40;99.90
16655;DHT22;8441;51.344;7.022;2022-10-17T01:24:40;15.30;99.90
16655;DHT22;8441;51.344;7.022;2022-10-17T01:33:24;15.40;99.90
16655;DHT22;8441;51.344;7.022;2022-10-17T01:35:55;15.40;99.90
16655;DHT22;8441;51.344;7.022;2022-10-17T01:38:30;15.40;99.90
16655;DHT22;8441;51.344;7.022;2022-10-17T01:41:02;15.40;99.90
16655;DHT22;8441;51.344;7.022;2022-10-17T01:43:34;15.40;99.90
16655;DHT22;8441;51.344;7.022;2022-10-17T01:46:09;15.40;99.90
16655;DHT22;8441;51.344;7.022;2022-10-17T01:48:43;15.50;99.90
16655;DHT22;8441;51.344;7.022;2022-10-17T01:51:14;15.40;99.90
16655;DHT22;8441;51.344;7.022;2022-10-17T01:53:48;15.50;99.90
16655;DHT22;8441;51.344;7.022;2022-10-17T01:56:17;15.40;99.90
16655;DHT22;8441;51.344;7.022;2022-10-17T01:58:49;15.40;99.90
16655;DHT22;8441;51.344;7.022;2022-10-17T02:01:18;15.40;99.90
16655;DHT22;8441;51.344;7.022;2022-10-17T02:03:48;15.40;99.90
16655;DHT22;8441;51.344;7.022;2022-10-17T02:06:17;15.40;99.90
16655;DHT22;8441;51.344;7.022;2022-10-17T02:08:45;15.40;99.90
16655;DHT22;8441;51.344;7.022;2022-10-17T02:11:15;15.40;99.90
16655;DHT22;8441;51.344;7.022;2022-10-17T02:16:36;15.40;99.90
16655;DHT22;8441;51.344;7.022;2022-10-17T02:22:11;15.50;99.90
16655;DHT22;8441;51.344;7.022;2022-10-17T02:24:46;15.40;99.90
16655;DHT22;8441;51.344;7.022;2022-10-17T02:27:16;15.50;99.90
16655;DHT22;8441;51.344;7.022;2022-10-17T02:29:52;15.40;99.90
16655;DHT22;8441;51.344;7.022;2022-10-17T02:32:25;15.50;99.90
16655;DHT22;8441;51.344;7.022;2022-10-17T02:34:59;15.50;99.90
16655;DHT22;8441;51.344;7.022;2022-10-17T02:37:29;15.40;99.90
16655;DHT22;8441;51.344;7.022;2022-10-17T02:39:58;15.40;99.90
16655;DHT22;8441;51.344;7.022;2022-10-17T02:42:27;15.40;99.90
16655;DHT22;8441;51.344;7.022;2022-10-17T02:44:54;15.50;99.90
16655;DHT22;8441;51.344;7.022;2022-10-17T02:47:27;15.40;99.90
16655;DHT22;8441;51.344;7.022;2022-10-17T02:49:57;15.40;99.90
16655;DHT22;8441;51.344;7.022;2022-10-17T02:52:28;15.40;99.90
16655;DHT22;8441;51.344;7.022;2022-10-17T02:54:59;15.40;99.90
16655;DHT22;8441;51.344;7.022;2022-10-17T02:57:29;15.50;99.90
16655;DHT22;8441;51.344;7.022;2022-10-17T02:59:58;15.50;99.90
16655;DHT22;8441;51.344;7.022;2022-10-17T03:02:27;15.50;99.90
16655;DHT22;8441;51.344;7.022;2022-10-17T03:04:54;15.50;99.90
16655;DHT22;8441;51.344;7.022;2022-10-17T03:07:23;15.60;99.90
16655;DHT22;8441;51.344;7.022;2022-10-17T03:09:50;15.60;99.90
16655;DHT22;8441;51.344;7.022;2022-10-17T03:12:17;15.60;99.90
16655;DHT22;8441;51.344;7.022;2022-10-17T03:14:44;15.60;99.90
16655;DHT22;8441;51.344;7.022;2022-10-17T03:17:11;15.70;99.90
16655;DHT22;8441;51.344;7.022;2022-10-17T03:19:38;15.60;99.90
16655;DHT22;8441;51.344;7.022;2022-10-17T03:22:06;15.70;99.90
16655;DHT22;8441;51.344;7.022;2022-10-17T03:24:34;15.60;99.90
16655;DHT22;8441;51.344;7.022;2022-10-17T03:27:01;15.60;99.90
16655;DHT22;8441;51.344;7.022;2022-10-17T03:29:28;15.60;99.90
16655;DHT22;8441;51.344;7.022;2022-10-17T03:31:56;15.60;99.90
16655;DHT22;8441;51.344;7.022;2022-10-17T03:34:23;15.50;99.90
16655;DHT22;8441;51.344;7.022;2022-10-17T03:36:50;15.50;99.90
16655;DHT22;8441;51.344;7.022;2022-10-17T03:39:17;15.50;99.90
16655;DHT22;8441;51.344;7.022;2022-10-17T03:41:46;15.60;99.90
16655;DHT22;8441;51.344;7.022;2022-10-17T03:44:13;15.50;99.90
16655;DHT22;8441;51.344;7.022;2022-10-17T03:46:40;15.50;99.90
16655;DHT22;8441;51.344;7.022;2022-10-17T03:49:08;15.50;99.90
16655;DHT22;8441;51.344;7.022;2022-10-17T03:51:35;15.50;99.90
16655;DHT22;8441;51.344;7.022;2022-10-17T03:54:02;15.60;99.90
16655;DHT22;8441;51.344;7.022;2022-10-17T03:56:30;15.60;99.90
16655;DHT22;8441;51.344;7.022;2022-10-17T03:58:58;15.60;99.90
16655;DHT22;8441;51.344;7.022;2022-10-17T04:01:25;15.60;99.90
16655;DHT22;8441;51.344;7.022;2022-10-17T04:03:55;15.70;99.90
16655;DHT22;8441;51.344;7.022;2022-10-17T04:06:22;15.70;99.90
16655;DHT22;8441;51.344;7.022;2022-10-17T04:08:50;15.60;99.90
16655;DHT22;8441;51.344;7.022;2022-10-17T04:11:18;15.70;99.90
16655;DHT22;8441;51.344;7.022;2022-10-17T04:13:46;15.60;99.90
16655;DHT22;8441;51.344;7.022;2022-10-17T04:16:15;15.60;99.90
16655;DHT22;8441;51.344;7.022;2022-10-17T04:18:43;15.60;99.90
16655;DHT22;8441;51.344;7.022;2022-10-17T04:21:11;15.70;99.90
16655;DHT22;8441;51.344;7.022;2022-10-17T04:23:38;15.60;99.90
16655;DHT22;8441;51.344;7.022;2022-10-17T04:26:06;15.60;99.90
16655;DHT22;8441;51.344;7.022;2022-10-17T04:28:34;15.60;99.90
16655;DHT22;8441;51.344;7.022;2022-10-17T04:31:03;15.60;99.90
16655;DHT22;8441;51.344;7.022;2022-10-17T04:33:33;15.60;99.90
16655;DHT22;8441;51.344;7.022;2022-10-17T04:36:01;15.70;99.90
16655;DHT22;8441;51.344;7.022;2022-10-17T04:38:30;15.70;99.90
16655;DHT22;8441;51.344;7.022;2022-10-17T04:40:57;15.60;99.90
16655;DHT22;8441;51.344;7.022;2022-10-17T04:43:27;15.70;99.90
16655;DHT22;8441;51.344;7.022;2022-10-17T04:45:56;15.70;99.90
16655;DHT22;8441;51.344;7.022;2022-10-17T04:48:23;15.60;99.90
16655;DHT22;8441;51.344;7.022;2022-10-17T04:50:55;15.60;99.90
16655;DHT22;8441;51.344;7.022;2022-10-17T04:53:23;15.70;99.90
16655;DHT22;8441;51.344;7.022;2022-10-17T04:55:51;15.60;99.90
16655;DHT22;8441;51.344;7.022;2022-10-17T04:58:20;15.60;99.90
16655;DHT22;8441;51.344;7.022;2022-10-17T05:00:47;15.80;99.90
16655;DHT22;8441;51.344;7.022;2022-10-17T05:03:15;15.70;99.90
16655;DHT22;8441;51.344;7.022;2022-10-17T05:05:42;15.80;99.90
16655;DHT22;8441;51.344;7.022;2022-10-17T05:08:11;15.70;99.90
16655;DHT22;8441;51.344;7.022;2022-10-17T05:10:40;15.80;99.90
16655;DHT22;8441;51.344;7.022;2022-10-17T05:13:08;15.80;99.90
16655;DHT22;8441;51.344;7.022;2022-10-17T05:15:36;15.70;99.90
16655;DHT22;8441;51.344;7.022;2022-10-17T05:18:04;15.70;99.90
16655;DHT22;8441;51.344;7.022;2022-10-17T05:20:32;15.70;99.90
16655;DHT22;8441;51.344;7.022;2022-10-17T05:22:59;15.70;99.90
16655;DHT22;8441;51.344;7.022;2022-10-17T05:25:28;15.70;99.90
16655;DHT22;8441;51.344;7.022;2022-10-17T05:27:55;15.70;99.90
16655;DHT22;8441;51.344;7.022;2022-10-17T05:30:22;15.70;99.90
16655;DHT22;8441;51.344;7.022;2022-10-17T05:32:51;15.70;99.90
16655;DHT22;8441;51.344;7.022;2022-10-17T05:35:19;15.70;99.90
16655;DHT22;8441;51.344;7.022;2022-10-17T05:37:47;15.70;99.90
16655;DHT22;8441;51.344;7.022;2022-10-17T05:40:14;15.80;99.90
16655;DHT22;8441;51.344;7.022;2022-10-17T05:42:46;15.80;99.90
16655;DHT22;8441;51.344;7.022;2022-10-17T05:45:15;15.70;99.90
16655;DHT22;8441;51.344;7.022;2022-10-17T05:47:42;15.70;99.90
16655;DHT22;8441;51.344;7.022;2022-10-17T05:50:09;15.70;99.90
16655;DHT22;8441;51.344;7.022;2022-10-17T05:52:36;15.70;99.90
16655;DHT22;8441;51.344;7.022;2022-10-17T05:55:05;15.70;99.90
16655;DHT22;8441;51.344;7.022;2022-10-17T05:57:32;15.70;99.90
16655;DHT22;8441;51.344;7.022;2022-10-17T06:00:01;15.80;99.90
16655;DHT22;8441;51.344;7.022;2022-10-17T06:02:28;15.70;99.90
16655;DHT22;8441;51.344;7.022;2022-10-17T06:04:55;15.80;99.90
16655;DHT22;8441;51.344;7.022;2022-10-17T06:07:22;15.80;99.90
16655;DHT22;8441;51.344;7.022;2022-10-17T06:09:50;15.90;99.90
16655;DHT22;8441;51.344;7.022;2022-10-17T06:12:17;15.80;99.90
16655;DHT22;8441;51.344;7.022;2022-10-17T06:14:44;15.80;99.90
16655;DHT22;8441;51.344;7.022;2022-10-17T06:17:13;15.90;99.90
16655;DHT22;8441;51.344;7.022;2022-10-17T06:19:40;15.90;99.90
16655;DHT22;8441;51.344;7.022;2022-10-17T06:22:09;15.90;99.90
16655;DHT22;8441;51.344;7.022;2022-10-17T06:24:36;15.90;99.90
16655;DHT22;8441;51.344;7.022;2022-10-17T06:27:03;15.80;99.90
16655;DHT22;8441;51.344;7.022;2022-10-17T06:29:30;15.80;99.90
16655;DHT22;8441;51.344;7.022;2022-10-17T06:31:58;15.80;99.90
16655;DHT22;8441;51.344;7.022;2022-10-17T06:34:26;15.80;99.90
16655;DHT22;8441;51.344;7.022;2022-10-17T06:36:53;15.80;99.90
16655;DHT22;8441;51.344;7.022;2022-10-17T06:39:21;15.80;99.90
16655;DHT22;8441;51.344;7.022;2022-10-17T06:41:49;15.80;99.90
16655;DHT22;8441;51.344;7.022;2022-10-17T06:44:16;15.80;99.90
16655;DHT22;8441;51.344;7.022;2022-10-17T06:46:43;15.80;99.90
16655;DHT22;8441;51.344;7.022;2022-10-17T06:49:11;15.90;99.90
16655;DHT22;8441;51.344;7.022;2022-10-17T06:51:39;15.80;99.90
16655;DHT22;8441;51.344;7.022;2022-10-17T06:54:06;15.90;99.90
16655;DHT22;8441;51.344;7.022;2022-10-17T06:56:33;15.90;99.90
16655;DHT22;8441;51.344;7.022;2022-10-17T06:59:01;16.00;99.90
16655;DHT22;8441;51.344;7.022;2022-10-17T07:01:29;16.10;99.90
16655;DHT22;8441;51.344;7.022;2022-10-17T07:03:57;16.20;99.90
16655;DHT22;8441;51.344;7.022;2022-10-17T07:06:24;16.20;99.90
16655;DHT22;8441;51.344;7.022;2022-10-17T07:08:53;16.30;99.90
16655;DHT22;8441;51.344;7.022;2022-10-17T07:11:22;16.30;99.90
16655;DHT22;8441;51.344;7.022;2022-10-17T07:13:50;16.30;99.90
16655;DHT22;8441;51.344;7.022;2022-10-17T07:16:17;16.40;99.90
16655;DHT22;8441;51.344;7.022;2022-10-17T07:18:48;16.50;99.90
16655;DHT22;8441;51.344;7.022;2022-10-17T07:21:15;16.40;99.90
16655;DHT22;8441;51.344;7.022;2022-10-17T07:23:43;16.50;99.90
16655;DHT22;8441;51.344;7.022;2022-10-17T07:26:13;16.60;99.90
16655;DHT22;8441;51.344;7.022;2022-10-17T07:28:42;16.70;99.90
16655;DHT22;8441;51.344;7.022;2022-10-17T07:31:11;16.80;99.90
16655;DHT22;8441;51.344;7.022;2022-10-17T07:33:39;16.80;99.90
16655;DHT22;8441;51.344;7.022;2022-10-17T07:36:07;16.90;99.90
16655;DHT22;8441;51.344;7.022;2022-10-17T07:38:35;16.90;99.90
16655;DHT22;8441;51.344;7.022;2022-10-17T07:41:04;16.90;99.90
16655;DHT22;8441;51.344;7.022;2022-10-17T07:43:33;17.00;99.90
16655;DHT22;8441;51.344;7.022;2022-10-17T07:46:01;17.10;99.90
16655;DHT22;8441;51.344;7.022;2022-10-17T07:48:30;17.20;99.90
16655;DHT22;8441;51.344;7.022;2022-10-17T07:50:57;17.20;99.90
16655;DHT22;8441;51.344;7.022;2022-10-17T07:53:27;17.30;99.90
16655;DHT22;8441;51.344;7.022;2022-10-17T07:55:54;17.30;99.90
16655;DHT22;8441;51.344;7.022;2022-10-17T07:58:21;17.30;99.90
16655;DHT22;8441;51.344;7.022;2022-10-17T08:00:50;17.40;99.90
16655;DHT22;8441;51.344;7.022;2022-10-17T08:03:17;17.40;99.90
16655;DHT22;8441;51.344;7.022;2022-10-17T08:05:44;17.40;99.90
16655;DHT22;8441;51.344;7.022;2022-10-17T08:08:11;17.40;99.90
16655;DHT22;8441;51.344;7.022;2022-10-17T08:10:39;17.30;99.90
16655;DHT22;8441;51.344;7.022;2022-10-17T08:13:06;17.30;99.90
16655;DHT22;8441;51.344;7.022;2022-10-17T08:15:36;17.40;99.90
16655;DHT22;8441;51.344;7.022;2022-10-17T08:18:05;17.40;99.90
16655;DHT22;8441;51.344;7.022;2022-10-17T08:20:32;17.50;99.90
16655;DHT22;8441;51.344;7.022;2022-10-17T08:22:59;17.50;99.90
16655;DHT22;8441;51.344;7.022;2022-10-17T08:25:26;17.50;99.90
16655;DHT22;8441;51.344;7.022;2022-10-17T08:27:54;17.60;99.90
16655;DHT22;8441;51.344;7.022;2022-10-17T08:30:21;17.60;99.90
16655;DHT22;8441;51.344;7.022;2022-10-17T08:32:48;17.60;99.90
16655;DHT22;8441;51.344;7.022;2022-10-17T08:35:16;17.70;99.90
16655;DHT22;8441;51.344;7.022;2022-10-17T08:37:44;17.80;99.90
16655;DHT22;8441;51.344;7.022;2022-10-17T08:40:18;18.00;99.90
16655;DHT22;8441;51.344;7.022;2022-10-17T08:43:01;18.20;99.90
16655;DHT22;8441;51.344;7.022;2022-10-17T08:45:34;18.30;99.90
16655;DHT22;8441;51.344;7.022;2022-10-17T08:48:04;18.40;99.90
16655;DHT22;8441;51.344;7.022;2022-10-17T08:50:41;18.40;99.90
16655;DHT22;8441;51.344;7.022;2022-10-17T08:53:14;18.40;99.90
16655;DHT22;8441;51.344;7.022;2022-10-17T08:55:45;18.50;99.90
16655;DHT22;8441;51.344;7.022;2022-10-17T08:58:14;18.60;99.90
16655;DHT22;8441;51.344;7.022;2022-10-17T09:01:01;18.60;99.90
16655;DHT22;8441;51.344;7.022;2022-10-17T09:03:44;18.70;99.90
16655;DHT22;8441;51.344;7.022;2022-10-17T09:06:21;18.70;99.90
16655;DHT22;8441;51.344;7.022;2022-10-17T09:09:05;18.80;99.90
16655;DHT22;8441;51.344;7.022;2022-10-17T09:11:44;18.80;99.90
16655;DHT22;8441;51.344;7.022;2022-10-17T09:17:17;18.80;99.90
16655;DHT22;8441;51.344;7.022;2022-10-17T09:19:55;18.80;99.90
16655;DHT22;8441;51.344;7.022;2022-10-17T09:22:29;18.90;99.90
16655;DHT22;8441;51.344;7.022;2022-10-17T09:24:58;18.90;99.90
16655;DHT22;8441;51.344;7.022;2022-10-17T09:27:33;18.90;99.90
16655;DHT22;8441;51.344;7.022;2022-10-17T09:30:32;19.00;99.90
16655;DHT22;8441;51.344;7.022;2022-10-17T09:33:00;19.00;99.90
16655;DHT22;8441;51.344;7.022;2022-10-17T09:35:31;19.00;99.90
16655;DHT22;8441;51.344;7.022;2022-10-17T09:38:01;19.10;99.90
16655;DHT22;8441;51.344;7.022;2022-10-17T09:40:33;19.20;99.90
16655;DHT22;8441;51.344;7.022;2022-10-17T09:43:03;19.30;99.90
16655;DHT22;8441;51.344;7.022;2022-10-17T09:45:33;19.50;99.90
16655;DHT22;8441;51.344;7.022;2022-10-17T09:48:10;19.60;99.90
16655;DHT22;8441;51.344;7.022;2022-10-17T09:50:39;19.70;99.90
16655;DHT22;8441;51.344;7.022;2022-10-17T09:53:12;19.80;99.90
16655;DHT22;8441;51.344;7.022;2022-10-17T09:55:42;19.90;99.90
16655;DHT22;8441;51.344;7.022;2022-10-17T09:58:11;19.90;99.90
16655;DHT22;8441;51.344;7.022;2022-10-17T10:00:40;19.70;99.90
16655;DHT22;8441;51.344;7.022;2022-10-17T10:03:10;19.70;99.90
16655;DHT22;8441;51.344;7.022;2022-10-17T10:05:39;19.60;99.90
16655;DHT22;8441;51.344;7.022;2022-10-17T10:08:13;19.60;99.90
16655;DHT22;8441;51.344;7.022;2022-10-17T10:10:42;19.40;99.90
16655;DHT22;8441;51.344;7.022;2022-10-17T10:13:17;19.40;99.90
16655;DHT22;8441;51.344;7.022;2022-10-17T10:15:48;19.30;99.90
16655;DHT22;8441;51.344;7.022;2022-10-17T10:18:31;19.30;99.90
16655;DHT22;8441;51.344;7.022;2022-10-17T10:21:06;19.30;99.90
16655;DHT22;8441;51.344;7.022;2022-10-17T10:23:36;19.20;99.90
16655;DHT22;8441;51.344;7.022;2022-10-17T10:26:19;19.20;99.90
16655;DHT22;8441;51.344;7.022;2022-10-17T10:28:52;19.10;99.90
16655;DHT22;8441;51.344;7.022;2022-10-17T10:31:29;19.10;99.90
16655;DHT22;8441;51.344;7.022;2022-10-17T10:33:59;19.10;99.90
16655;DHT22;8441;51.344;7.022;2022-10-17T10:36:46;19.10;99.90
16655;DHT22;8441;51.344;7.022;2022-10-17T10:39:27;19.30;99.90
16655;DHT22;8441;51.344;7.022;2022-10-17T10:41:55;19.40;99.90
16655;DHT22;8441;51.344;7.022;2022-10-17T10:44:26;19.60;99.90
16655;DHT22;8441;51.344;7.022;2022-10-17T10:47:22;19.70;99.90
16655;DHT22;8441;51.344;7.022;2022-10-17T10:49:52;19.80;99.90
16655;DHT22;8441;51.344;7.022;2022-10-17T10:52:38;19.80;99.90
16655;DHT22;8441;51.344;7.022;2022-10-17T10:55:17;19.80;99.90
16655;DHT22;8441;51.344;7.022;2022-10-17T10:57:48;19.90;99.90
16655;DHT22;8441;51.344;7.022;2022-10-17T11:00:19;19.80;99.90
16655;DHT22;8441;51.344;7.022;2022-10-17T11:02:53;19.80;99.90
16655;DHT22;8441;51.344;7.022;2022-10-17T11:05:35;19.80;99.90
16655;DHT22;8441;51.344;7.022;2022-10-17T11:08:11;19.70;99.90
16655;DHT22;8441;51.344;7.022;2022-10-17T11:10:54;19.70;99.90
16655;DHT22;8441;51.344;7.022;2022-10-17T11:13:25;19.70;99.90
16655;DHT22;8441;51.344;7.022;2022-10-17T11:15:57;19.70;99.90
16655;DHT22;8441;51.344;7.022;2022-10-17T11:18:29;19.80;99.90
16655;DHT22;8441;51.344;7.022;2022-10-17T11:21:02;19.80;99.90
16655;DHT22;8441;51.344;7.022;2022-10-17T11:23:46;19.80;99.90
16655;DHT22;8441;51.344;7.022;2022-10-17T11:26:19;19.80;99.90
16655;DHT22;8441;51.344;7.022;2022-10-17T11:28:51;19.70;99.90
16655;DHT22;8441;51.344;7.022;2022-10-17T11:31:20;19.70;99.90
16655;DHT22;8441;51.344;7.022;2022-10-17T11:33:49;19.70;99.90
16655;DHT22;8441;51.344;7.022;2022-10-17T11:36:21;19.80;99.90
16655;DHT22;8441;51.344;7.022;2022-10-17T11:38:55;19.80;99.90
16655;DHT22;8441;51.344;7.022;2022-10-17T11:41:28;19.80;99.90
16655;DHT22;8441;51.344;7.022;2022-10-17T11:44:02;19.90;99.90
16655;DHT22;8441;51.344;7.022;2022-10-17T11:46:34;19.90;99.90
16655;DHT22;8441;51.344;7.022;2022-10-17T11:49:06;19.90;99.90
16655;DHT22;8441;51.344;7.022;2022-10-17T11:51:42;19.80;99.90
16655;DHT22;8441;51.344;7.022;2022-10-17T11:54:15;19.80;99.90
16655;DHT22;8441;51.344;7.022;2022-10-17T11:56:50;19.80;99.90
16655;DHT22;8441;51.344;7.022;2022-10-17T11:59:43;19.70;99.90
16655;DHT22;8441;51.344;7.022;2022-10-17T12:02:16;19.70;99.90
16655;DHT22;8441;51.344;7.022;2022-10-17T12:04:55;19.60;99.90
16655;DHT22;8441;51.344;7.022;2022-10-17T12:10:23;19.60;99.90
16655;DHT22;8441;51.344;7.022;2022-10-17T12:12:56;19.50;99.90
16655;DHT22;8441;51.344;7.022;2022-10-17T12:15:43;19.40;99.90
16655;DHT22;8441;51.344;7.022;2022-10-17T12:18:15;19.40;99.90
16655;DHT22;8441;51.344;7.022;2022-10-17T12:20:43;19.50;99.90
16655;DHT22;8441;51.344;7.022;2022-10-17T12:23:26;19.50;99.90
16655;DHT22;8441;51.344;7.022;2022-10-17T12:25:55;19.50;99.90
16655;DHT22;8441;51.344;7.022;2022-10-17T12:28:29;19.50;99.90
16655;DHT22;8441;51.344;7.022;2022-10-17T12:30:59;19.50;99.90
16655;DHT22;8441;51.344;7.022;2022-10-17T12:33:32;19.50;99.90
16655;DHT22;8441;51.344;7.022;2022-10-17T12:42:47;19.50;99.90
16655;DHT22;8441;51.344;7.022;2022-10-17T12:45:48;19.40;99.90
16655;DHT22;8441;51.344;7.022;2022-10-17T12:51:21;19.20;99.90
16655;DHT22;8441;51.344;7.022;2022-10-17T12:53:56;19.10;99.90
16655;DHT22;8441;51.344;7.022;2022-10-17T12:56:33;19.00;99.90
16655;DHT22;8441;51.344;7.022;2022-10-17T12:59:07;18.90;99.90
16655;DHT22;8441;51.344;7.022;2022-10-17T13:01:37;18.90;99.90
16655;DHT22;8441;51.344;7.022;2022-10-17T13:04:08;18.90;99.90
16655;DHT22;8441;51.344;7.022;2022-10-17T13:06:39;18.90;99.90
16655;DHT22;8441;51.344;7.022;2022-10-17T13:09:19;18.90;99.90
16655;DHT22;8441;51.344;7.022;2022-10-17T13:11:48;18.90;99.90
16655;DHT22;8441;51.344;7.022;2022-10-17T13:14:18;18.90;99.90
16655;DHT22;8441;51.344;7.022;2022-10-17T13:16:53;18.90;99.90
16655;DHT22;8441;51.344;7.022;2022-10-17T13:19:22;18.90;99.90
16655;DHT22;8441;51.344;7.022;2022-10-17T13:21:50;18.90;99.90
16655;DHT22;8441;51.344;7.022;2022-10-17T13:24:22;18.90;99.90
16655;DHT22;8441;51.344;7.022;2022-10-17T13:26:50;18.90;99.90
16655;DHT22;8441;51.344;7.022;2022-10-17T13:29:17;19.00;99.90
16655;DHT22;8441;51.344;7.022;2022-10-17T13:31:53;19.00;99.90
16655;DHT22;8441;51.344;7.022;2022-10-17T13:34:22;19.00;99.90
16655;DHT22;8441;51.344;7.022;2022-10-17T13:36:52;19.00;99.90
16655;DHT22;8441;51.344;7.022;2022-10-17T13:39:21;18.90;99.90
16655;DHT22;8441;51.344;7.022;2022-10-17T13:41:49;18.90;99.90
16655;DHT22;8441;51.344;7.022;2022-10-17T13:44:20;18.90;99.90
16655;DHT22;8441;51.344;7.022;2022-10-17T13:46:48;18.80;99.90
16655;DHT22;8441;51.344;7.022;2022-10-17T13:49:31;18.70;99.90
16655;DHT22;8441;51.344;7.022;2022-10-17T13:52:01;18.70;99.90
16655;DHT22;8441;51.344;7.022;2022-10-17T13:54:35;18.60;99.90
16655;DHT22;8441;51.344;7.022;2022-10-17T13:57:15;18.70;99.90
16655;DHT22;8441;51.344;7.022;2022-10-17T13:59:43;18.70;99.90
16655;DHT22;8441;51.344;7.022;2022-10-17T14:02:14;18.70;99.90
16655;DHT22;8441;51.344;7.022;2022-10-17T14:04:43;18.70;99.90
16655;DHT22;8441;51.344;7.022;2022-10-17T14:07:23;18.80;99.90
16655;DHT22;8441;51.344;7.022;2022-10-17T14:09:52;18.80;99.90
16655;DHT22;8441;51.344;7.022;2022-10-17T14:12:20;18.80;99.90
16655;DHT22;8441;51.344;7.022;2022-10-17T14:14:51;18.90;99.90
16655;DHT22;8441;51.344;7.022;2022-10-17T14:17:22;18.90;99.90
16655;DHT22;8441;51.344;7.022;2022-10-17T14:19:54;19.00;99.90
16655;DHT22;8441;51.344;7.022;2022-10-17T14:22:26;19.10;99.90
16655;DHT22;8441;51.344;7.022;2022-10-17T14:24:55;19.10;99.90
16655;DHT22;8441;51.344;7.022;2022-10-17T14:27:28;19.00;99.90
16655;DHT22;8441;51.344;7.022;2022-10-17T14:29:57;19.00;99.90
16655;DHT22;8441;51.344;7.022;2022-10-17T14:32:28;18.90;99.90
16655;DHT22;8441;51.344;7.022;2022-10-17T14:34:59;18.80;99.90
16655;DHT22;8441;51.344;7.022;2022-10-17T14:37:33;18.80;99.90
16655;DHT22;8441;51.344;7.022;2022-10-17T14:40:03;18.80;99.90
16655;DHT22;8441;51.344;7.022;2022-10-17T14:42:31;18.80;99.90
16655;DHT22;8441;51.344;7.022;2022-10-17T14:45:05;18.80;99.90
16655;DHT22;8441;51.344;7.022;2022-10-17T14:47:33;18.80;99.90
16655;DHT22;8441;51.344;7.022;2022-10-17T14:50:19;18.80;99.90
16655;DHT22;8441;51.344;7.022;2022-10-17T14:52:58;18.80;99.90
16655;DHT22;8441;51.344;7.022;2022-10-17T14:55:28;18.80;99.90
16655;DHT22;8441;51.344;7.022;2022-10-17T14:57:56;18.70;99.90
16655;DHT22;8441;51.344;7.022;2022-10-17T15:00:24;18.70;99.90
16655;DHT22;8441;51.344;7.022;2022-10-17T15:02:52;18.80;99.90
16655;DHT22;8441;51.344;7.022;2022-10-17T15:05:21;18.80;99.90
16655;DHT22;8441;51.344;7.022;2022-10-17T15:07:50;18.80;99.90
16655;DHT22;8441;51.344;7.022;2022-10-17T15:10:26;18.80;99.90
16655;DHT22;8441;51.344;7.022;2022-10-17T15:12:54;18.80;99.90
16655;DHT22;8441;51.344;7.022;2022-10-17T15:15:21;18.80;99.90
16655;DHT22;8441;51.344;7.022;2022-10-17T15:17:48;18.80;99.90
16655;DHT22;8441;51.344;7.022;2022-10-17T15:20:16;18.70;99.90
16655;DHT22;8441;51.344;7.022;2022-10-17T15:22:46;18.70;99.90
16655;DHT22;8441;51.344;7.022;2022-10-17T15:25:13;18.60;99.90
16655;DHT22;8441;51.344;7.022;2022-10-17T15:27:40;18.60;99.90
16655;DHT22;8441;51.344;7.022;2022-10-17T15:30:16;18.50;99.90
16655;DHT22;8441;51.344;7.022;2022-10-17T15:32:44;18.50;99.90
16655;DHT22;8441;51.344;7.022;2022-10-17T15:35:11;18.40;99.90
16655;DHT22;8441;51.344;7.022;2022-10-17T15:37:38;18.30;99.90
16655;DHT22;8441;51.344;7.022;2022-10-17T15:40:13;18.30;99.90
16655;DHT22;8441;51.344;7.022;2022-10-17T15:42:41;18.20;99.90
16655;DHT22;8441;51.344;7.022;2022-10-17T15:45:09;18.10;99.90
16655;DHT22;8441;51.344;7.022;2022-10-17T15:47:37;18.00;99.90
16655;DHT22;8441;51.344;7.022;2022-10-17T15:50:06;18.00;99.90
16655;DHT22;8441;51.344;7.022;2022-10-17T15:52:34;17.90;99.90
16655;DHT22;8441;51.344;7.022;2022-10-17T15:55:01;17.90;99.90
16655;DHT22;8441;51.344;7.022;2022-10-17T15:57:33;17.80;99.90
16655;DHT22;8441;51.344;7.022;2022-10-17T16:00:01;17.80;99.90
16655;DHT22;8441;51.344;7.022;2022-10-17T16:02:28;17.80;99.90
16655;DHT22;8441;51.344;7.022;2022-10-17T16:04:55;17.70;99.90
16655;DHT22;8441;51.344;7.022;2022-10-17T16:07:22;17.70;99.90
16655;DHT22;8441;51.344;7.022;2022-10-17T16:09:49;17.70;99.90
16655;DHT22;8441;51.344;7.022;2022-10-17T16:12:20;17.70;99.90
16655;DHT22;8441;51.344;7.022;2022-10-17T16:14:49;17.70;99.90
16655;DHT22;8441;51.344;7.022;2022-10-17T16:17:16;17.60;99.90
16655;DHT22;8441;51.344;7.022;2022-10-17T16:19:44;17.60;99.90
16655;DHT22;8441;51.344;7.022;2022-10-17T16:22:19;17.60;99.90
16655;DHT22;8441;51.344;7.022;2022-10-17T16:24:46;17.60;99.90
16655;DHT22;8441;51.344;7.022;2022-10-17T16:27:13;17.50;99.90
16655;DHT22;8441;51.344;7.022;2022-10-17T16:29:41;17.40;99.90
16655;DHT22;8441;51.344;7.022;2022-10-17T16:32:09;17.40;99.90
16655;DHT22;8441;51.344;7.022;2022-10-17T16:34:37;17.40;99.90